createdAt,value
2022-12-06T05:00:57.971Z,3.26
2022-12-06T05:02:00.003Z,3.24
2022-12-06T05:02:57.218Z,3.28
2022-12-06T05:03:57.289Z,3.29
2022-12-06T05:04:57.190Z,3.29
2022-12-06T05:05:57.185Z,3.28
2022-12-06T05:06:57.200Z,3.26
2022-12-06T05:07:57.208Z,3.26
2022-12-06T05:08:57.119Z,3.24
2022-12-06T05:09:57.258Z,3.23
2022-12-06T05:10:57.097Z,3.20
2022-12-06T05:11:57.108Z,3.20
2022-12-06T05:12:57.139Z,3.17
2022-12-06T05:13:57.103Z,3.17
2022-12-06T05:14:57.048Z,3.15
2022-12-06T05:15:57.087Z,3.17
2022-12-06T05:16:57.016Z,3.18
2022-12-06T05:17:57.047Z,3.17
2022-12-06T05:18:57.029Z,3.17
2022-12-06T05:19:57.117Z,3.15
2022-12-06T05:20:57.011Z,3.14
2022-12-06T05:21:56.978Z,3.15
2022-12-06T05:22:56.944Z,3.17
2022-12-06T05:23:56.945Z,3.15
2022-12-06T05:24:56.924Z,3.18
2022-12-06T05:25:57.124Z,3.20
2022-12-06T05:26:56.904Z,3.21
2022-12-06T05:28:01.365Z,3.21
2022-12-06T05:28:56.863Z,3.21
2022-12-06T05:29:57.010Z,3.20
2022-12-06T05:30:56.861Z,3.18
2022-12-06T05:31:57.054Z,3.18
2022-12-06T05:32:57.143Z,3.17
2022-12-06T05:33:56.831Z,3.17
2022-12-06T05:34:56.790Z,3.15
2022-12-06T05:35:56.799Z,3.14
2022-12-06T05:36:56.769Z,3.14
2022-12-06T05:37:57.700Z,3.14
2022-12-06T05:38:56.729Z,3.14
2022-12-06T05:39:56.739Z,3.14
2022-12-06T05:40:56.719Z,3.17
2022-12-06T05:41:56.718Z,3.17
2022-12-06T05:42:56.677Z,3.17
2022-12-06T05:43:56.908Z,3.18
2022-12-06T05:44:56.678Z,3.18
2022-12-06T05:45:56.694Z,3.21
2022-12-06T05:46:56.649Z,3.23
2022-12-06T05:47:56.645Z,3.23
2022-12-06T05:48:56.639Z,3.23
2022-12-06T05:49:56.654Z,3.26
2022-12-06T05:50:56.685Z,3.28
2022-12-06T05:51:59.981Z,3.29
2022-12-06T05:52:57.554Z,3.31
2022-12-06T05:53:56.574Z,3.33
2022-12-06T05:54:56.645Z,3.35
2022-12-06T05:55:56.919Z,3.36
2022-12-06T05:56:56.521Z,3.39
2022-12-06T05:57:56.517Z,3.39
2022-12-06T05:58:56.515Z,3.42
2022-12-06T05:59:56.494Z,3.39
2022-12-06T06:00:56.522Z,3.40
2022-12-06T06:01:56.632Z,3.40
2022-12-06T06:02:56.543Z,3.40
2022-12-06T06:03:56.462Z,3.42
2022-12-06T06:04:56.422Z,3.43
2022-12-06T06:05:56.419Z,3.43
2022-12-06T06:06:56.498Z,3.43
2022-12-06T06:07:56.427Z,3.40
2022-12-06T06:08:56.388Z,3.42
2022-12-06T06:09:56.382Z,3.43
2022-12-06T06:10:56.340Z,3.42
2022-12-06T06:11:56.338Z,3.43
2022-12-06T06:12:56.750Z,3.47
2022-12-06T06:13:56.297Z,3.45
2022-12-06T06:14:56.275Z,3.48
2022-12-06T06:15:56.272Z,3.47
2022-12-06T06:17:03.298Z,3.45
2022-12-06T06:17:56.269Z,3.47
2022-12-06T06:18:56.300Z,3.47
2022-12-06T06:19:56.229Z,3.48
2022-12-06T06:20:56.199Z,3.48
2022-12-06T06:21:56.207Z,3.48
2022-12-06T06:22:56.185Z,3.51
2022-12-06T06:23:56.193Z,3.50
2022-12-06T06:24:56.218Z,3.50
2022-12-06T06:25:56.167Z,3.50
2022-12-06T06:26:56.137Z,3.51
2022-12-06T06:27:56.135Z,3.50
2022-12-06T06:28:56.116Z,3.51
2022-12-06T06:29:56.133Z,3.50
2022-12-06T06:30:56.476Z,3.51
2022-12-06T06:31:56.138Z,3.51
2022-12-06T06:32:56.053Z,3.51
2022-12-06T06:33:56.057Z,3.51
2022-12-06T06:34:56.032Z,3.51
2022-12-06T06:35:56.025Z,3.52
2022-12-06T06:36:56.081Z,3.52
2022-12-06T06:37:56.038Z,3.52
2022-12-06T06:38:55.972Z,3.54
2022-12-06T06:39:55.983Z,3.52
2022-12-06T06:40:55.955Z,3.52
2022-12-06T06:41:55.971Z,3.52
2022-12-06T06:42:55.961Z,3.54
2022-12-06T06:43:55.940Z,3.52
2022-12-06T06:44:55.982Z,3.54
2022-12-06T06:45:55.980Z,3.54
2022-12-06T06:46:55.910Z,3.52
2022-12-06T06:47:55.895Z,3.54
2022-12-06T06:48:55.863Z,3.54
2022-12-06T06:49:55.869Z,3.55
2022-12-06T06:50:57.535Z,3.55
2022-12-06T06:51:55.832Z,3.57
2022-12-06T06:52:56.401Z,3.57
2022-12-06T06:53:55.798Z,3.58
2022-12-06T06:54:55.767Z,3.58
2022-12-06T06:55:55.800Z,3.60
2022-12-06T06:56:55.756Z,3.58
2022-12-06T06:57:55.756Z,3.60
2022-12-06T06:58:55.828Z,3.58
2022-12-06T06:59:55.725Z,3.58
2022-12-06T07:00:55.792Z,3.58
2022-12-06T07:01:55.954Z,3.58
2022-12-06T07:02:55.738Z,3.57
2022-12-06T07:03:55.693Z,3.58
2022-12-06T07:04:55.725Z,3.58
2022-12-06T07:05:55.649Z,3.60
2022-12-06T07:06:55.615Z,3.60
2022-12-06T07:07:55.659Z,3.60
2022-12-06T07:08:55.603Z,3.60
2022-12-06T07:09:55.595Z,3.58
2022-12-06T07:10:55.948Z,3.57
2022-12-06T07:11:55.579Z,3.55
2022-12-06T07:12:55.545Z,3.55
2022-12-06T07:13:55.562Z,3.55
2022-12-06T07:14:55.645Z,3.54
2022-12-06T07:15:55.522Z,3.54
2022-12-06T07:16:55.809Z,3.52
2022-12-06T07:17:55.510Z,3.52
2022-12-06T07:18:55.460Z,3.52
2022-12-06T07:19:55.495Z,3.51
2022-12-06T07:20:55.438Z,3.51
2022-12-06T07:21:55.449Z,3.51
2022-12-06T07:22:55.771Z,3.51
2022-12-06T07:23:55.407Z,3.51
2022-12-06T07:24:55.379Z,3.51
2022-12-06T07:25:55.409Z,3.52
2022-12-06T07:26:55.359Z,3.55
2022-12-06T07:27:55.366Z,3.55
2022-12-06T07:28:55.499Z,3.58
2022-12-06T07:29:55.348Z,3.60
2022-12-06T07:30:55.368Z,3.61
2022-12-06T07:31:55.316Z,3.61
2022-12-06T07:32:55.293Z,3.65
2022-12-06T07:33:55.296Z,3.66
2022-12-06T07:34:55.315Z,3.66
2022-12-06T07:36:12.128Z,3.69
2022-12-06T07:36:56.234Z,3.70
2022-12-06T07:37:55.243Z,3.73
2022-12-06T07:38:55.218Z,3.73
2022-12-06T07:39:55.214Z,3.73
2022-12-06T07:41:04.540Z,3.76
2022-12-06T07:41:56.196Z,3.76
2022-12-06T07:42:55.159Z,3.76
2022-12-06T07:43:55.175Z,3.78
2022-12-06T07:44:59.961Z,3.79
2022-12-06T07:45:56.297Z,3.79
2022-12-06T07:46:55.101Z,3.78
2022-12-06T07:47:55.106Z,3.78
2022-12-06T07:48:55.080Z,3.78
2022-12-06T07:49:55.113Z,3.80
2022-12-06T07:50:55.062Z,3.79
2022-12-06T07:51:55.121Z,3.78
2022-12-06T07:52:55.031Z,3.78
2022-12-06T07:53:55.223Z,3.80
2022-12-06T07:54:55.018Z,3.79
2022-12-06T07:55:55.018Z,3.79
2022-12-06T07:56:54.987Z,3.80
2022-12-06T07:57:55.162Z,3.80
2022-12-06T07:58:54.970Z,3.80
2022-12-06T07:59:54.940Z,3.83
2022-12-06T08:00:54.957Z,3.86
2022-12-06T08:01:55.027Z,3.86
2022-12-06T08:02:54.917Z,3.88
2022-12-06T08:03:54.972Z,3.91
2022-12-06T08:04:54.952Z,3.93
2022-12-06T08:05:54.865Z,3.94
2022-12-06T08:06:54.874Z,3.97
2022-12-06T08:07:54.887Z,3.98
2022-12-06T08:08:54.835Z,4.00
2022-12-06T08:09:55.055Z,4.02
2022-12-06T08:10:54.817Z,4.05
2022-12-06T08:11:54.776Z,4.06
2022-12-06T08:12:54.795Z,4.09
2022-12-06T08:13:54.770Z,4.12
2022-12-06T08:14:59.455Z,4.12
2022-12-06T08:15:55.972Z,4.14
2022-12-06T08:16:54.738Z,4.14
2022-12-06T08:17:54.712Z,4.14
2022-12-06T08:18:55.499Z,4.15
2022-12-06T08:19:54.711Z,4.16
2022-12-06T08:20:54.691Z,4.18
2022-12-06T08:21:54.663Z,4.20
2022-12-06T08:22:54.671Z,4.22
2022-12-06T08:23:54.633Z,4.22
2022-12-06T08:24:54.870Z,4.23
2022-12-06T08:25:54.920Z,4.24
2022-12-06T08:26:54.642Z,4.24
2022-12-06T08:27:54.591Z,4.24
2022-12-06T08:28:54.580Z,4.26
2022-12-06T08:29:54.557Z,4.26
2022-12-06T08:30:59.674Z,4.24
2022-12-06T08:31:55.530Z,4.26
2022-12-06T08:32:54.539Z,4.24
2022-12-06T08:33:54.509Z,4.26
2022-12-06T08:34:54.510Z,4.26
2022-12-06T08:35:54.494Z,4.26
2022-12-06T08:36:59.010Z,4.24
2022-12-06T08:37:55.449Z,4.24
2022-12-06T08:38:54.449Z,4.26
2022-12-06T08:39:54.439Z,4.29
2022-12-06T08:40:54.430Z,4.29
2022-12-06T08:41:54.398Z,4.32
2022-12-06T08:42:54.579Z,4.32
2022-12-06T08:43:54.403Z,4.34
2022-12-06T08:44:54.382Z,4.34
2022-12-06T08:45:54.387Z,4.36
2022-12-06T08:46:54.358Z,4.36
2022-12-06T08:47:54.329Z,4.34
2022-12-06T08:48:54.373Z,4.34
2022-12-06T08:49:54.297Z,4.36
2022-12-06T08:50:54.322Z,4.37
2022-12-06T08:51:54.268Z,4.37
2022-12-06T08:52:54.276Z,4.37
2022-12-06T08:53:54.241Z,4.37
2022-12-06T08:54:54.323Z,4.37
2022-12-06T08:56:00.490Z,4.36
2022-12-06T08:56:55.231Z,4.36
2022-12-06T08:57:54.190Z,4.34
2022-12-06T08:58:54.211Z,4.36
2022-12-06T08:59:54.173Z,4.36
2022-12-06T09:00:54.840Z,4.36
2022-12-06T09:01:54.199Z,4.37
2022-12-06T09:02:54.139Z,4.41
2022-12-06T09:03:54.110Z,4.42
2022-12-06T09:04:54.237Z,4.44
2022-12-06T09:05:54.090Z,4.48
2022-12-06T09:06:54.291Z,4.50
2022-12-06T09:07:54.097Z,4.51
2022-12-06T09:08:54.083Z,4.54
2022-12-06T09:09:54.053Z,4.59
2022-12-06T09:10:54.048Z,4.62
2022-12-06T09:11:54.054Z,4.63
2022-12-06T09:12:54.358Z,4.67
2022-12-06T09:13:53.981Z,4.70
2022-12-06T09:14:54.000Z,4.72
2022-12-06T09:15:54.017Z,4.73
2022-12-06T09:16:53.966Z,4.77
2022-12-06T09:17:53.936Z,4.78
2022-12-06T09:18:55.177Z,4.82
2022-12-06T09:19:53.938Z,4.85
2022-12-06T09:20:54.875Z,4.88
2022-12-06T09:21:53.901Z,4.86
2022-12-06T09:22:53.902Z,4.89
2022-12-06T09:23:53.858Z,4.91
2022-12-06T09:24:53.968Z,4.94
2022-12-06T09:25:53.835Z,4.96
2022-12-06T09:26:53.883Z,4.97
2022-12-06T09:27:53.856Z,4.94
2022-12-06T09:28:53.917Z,4.96
2022-12-06T09:29:53.784Z,4.97
2022-12-06T09:30:53.851Z,4.96
2022-12-06T09:31:53.783Z,4.99
2022-12-06T09:32:53.811Z,4.97
2022-12-06T09:33:53.793Z,5.00
2022-12-06T09:34:53.841Z,5.00
2022-12-06T09:35:53.713Z,4.99
2022-12-06T09:36:53.725Z,4.97
2022-12-06T09:37:53.766Z,4.94
2022-12-06T09:38:53.690Z,4.99
2022-12-06T09:39:53.841Z,4.99
2022-12-06T09:40:53.664Z,5.02
2022-12-06T09:41:53.640Z,4.99
2022-12-06T09:42:53.638Z,4.99
2022-12-06T09:43:53.609Z,5.02
2022-12-06T09:44:56.878Z,5.00
2022-12-06T09:45:53.588Z,5.03
2022-12-06T09:46:53.627Z,5.06
2022-12-06T09:47:53.555Z,5.10
2022-12-06T09:48:53.596Z,5.15
2022-12-06T09:49:53.548Z,5.20
2022-12-06T09:50:53.589Z,5.24
2022-12-06T09:51:53.510Z,5.27
2022-12-06T09:52:53.495Z,5.31
2022-12-06T09:53:53.485Z,5.33
2022-12-06T09:54:59.887Z,5.33
2022-12-06T09:55:54.523Z,5.35
2022-12-06T09:56:53.468Z,5.38
2022-12-06T09:57:53.464Z,5.40
2022-12-06T09:58:53.425Z,5.43
2022-12-06T09:59:53.406Z,5.45
2022-12-06T10:00:53.446Z,5.45
2022-12-06T10:01:54.415Z,5.43
2022-12-06T10:02:53.427Z,5.43
2022-12-06T10:03:53.333Z,5.42
2022-12-06T10:04:53.354Z,5.42
2022-12-06T10:05:53.311Z,5.45
2022-12-06T10:06:53.324Z,5.48
2022-12-06T10:07:54.079Z,5.49
2022-12-06T10:08:53.445Z,5.53
2022-12-06T10:09:53.263Z,5.57
2022-12-06T10:10:53.289Z,5.60
2022-12-06T10:11:53.240Z,5.65
2022-12-06T10:12:53.250Z,5.74
2022-12-06T10:13:53.881Z,5.81
2022-12-06T10:14:53.212Z,5.83
2022-12-06T10:15:53.267Z,5.89
2022-12-06T10:16:53.197Z,5.85
2022-12-06T10:17:53.203Z,5.91
2022-12-06T10:18:53.169Z,5.94
2022-12-06T10:19:53.257Z,5.94
2022-12-06T10:20:53.143Z,5.97
2022-12-06T10:21:53.103Z,5.94
2022-12-06T10:22:53.123Z,5.93
2022-12-06T10:23:56.133Z,5.93
2022-12-06T10:24:54.219Z,5.91
2022-12-06T10:25:53.088Z,5.91
2022-12-06T10:26:53.055Z,5.96
2022-12-06T10:27:53.079Z,5.96
2022-12-06T10:28:53.038Z,5.99
2022-12-06T10:29:52.997Z,6.00
2022-12-06T10:30:53.879Z,6.04
2022-12-06T10:31:53.086Z,6.08
2022-12-06T10:32:53.000Z,6.11
2022-12-06T10:33:52.944Z,6.09
2022-12-06T10:34:52.944Z,6.08
2022-12-06T10:35:52.957Z,6.04
2022-12-06T10:36:52.989Z,6.03
2022-12-06T10:37:52.893Z,5.96
2022-12-06T10:38:52.894Z,5.89
2022-12-06T10:39:52.863Z,5.83
2022-12-06T10:40:52.872Z,5.82
2022-12-06T10:41:52.835Z,5.81
2022-12-06T10:42:52.994Z,5.85
2022-12-06T10:43:52.813Z,5.89
2022-12-06T10:44:52.846Z,5.94
2022-12-06T10:45:52.790Z,5.99
2022-12-06T10:46:52.895Z,6.01
2022-12-06T10:47:52.769Z,6.06
2022-12-06T10:48:52.888Z,6.09
2022-12-06T10:49:52.730Z,6.12
2022-12-06T10:50:52.741Z,6.12
2022-12-06T10:51:52.702Z,6.08
2022-12-06T10:52:57.214Z,6.01
2022-12-06T10:53:53.838Z,5.99
2022-12-06T10:54:52.694Z,5.97
2022-12-06T10:55:52.662Z,5.96
2022-12-06T10:56:52.670Z,5.93
2022-12-06T10:57:52.629Z,5.93
2022-12-06T10:58:52.667Z,5.96
2022-12-06T10:59:52.678Z,5.99
2022-12-06T11:00:52.914Z,5.94
2022-12-06T11:01:52.623Z,5.94
2022-12-06T11:02:52.587Z,5.99
2022-12-06T11:03:52.564Z,6.00
2022-12-06T11:04:52.621Z,6.04
2022-12-06T11:05:52.570Z,6.09
2022-12-06T11:06:54.890Z,6.12
2022-12-06T11:07:52.540Z,6.17
2022-12-06T11:08:52.506Z,6.17
2022-12-06T11:09:52.525Z,6.21
2022-12-06T11:10:52.688Z,6.27
2022-12-06T11:11:52.455Z,6.33
2022-12-06T11:12:52.454Z,6.40
2022-12-06T11:13:52.448Z,6.44
2022-12-06T11:14:52.423Z,6.46
2022-12-06T11:15:52.447Z,6.43
2022-12-06T11:16:56.533Z,6.43
2022-12-06T11:17:52.380Z,6.48
2022-12-06T11:18:52.402Z,6.52
2022-12-06T11:19:52.355Z,6.56
2022-12-06T11:20:52.356Z,6.64
2022-12-06T11:21:52.336Z,6.70
2022-12-06T11:22:52.398Z,6.76
2022-12-06T11:23:52.304Z,6.79
2022-12-06T11:24:52.314Z,6.79
2022-12-06T11:25:52.279Z,6.84
2022-12-06T11:26:52.323Z,6.88
2022-12-06T11:27:52.259Z,6.88
2022-12-06T11:28:52.294Z,6.85
2022-12-06T11:29:52.231Z,6.84
2022-12-06T11:30:52.238Z,6.84
2022-12-06T11:31:52.262Z,6.87
2022-12-06T11:32:52.229Z,6.87
2022-12-06T11:33:52.166Z,6.80
2022-12-06T11:34:52.551Z,6.77
2022-12-06T11:35:52.149Z,6.67
2022-12-06T11:36:58.150Z,6.64
2022-12-06T11:37:53.139Z,6.58
2022-12-06T11:38:52.127Z,6.52
2022-12-06T11:39:52.100Z,6.46
2022-12-06T11:40:52.328Z,6.40
2022-12-06T11:41:52.104Z,6.41
2022-12-06T11:42:52.140Z,6.41
2022-12-06T11:43:52.038Z,6.40
2022-12-06T11:44:52.055Z,6.37
2022-12-06T11:45:52.097Z,6.36
2022-12-06T11:46:52.360Z,6.34
2022-12-06T11:47:52.007Z,6.34
2022-12-06T11:48:52.016Z,6.33
2022-12-06T11:49:51.967Z,6.33
2022-12-06T11:50:52.115Z,6.27
2022-12-06T11:51:51.933Z,6.27
2022-12-06T11:52:51.945Z,6.27
2022-12-06T11:53:51.920Z,6.25
2022-12-06T11:54:51.922Z,6.25
2022-12-06T11:55:51.872Z,6.22
2022-12-06T11:56:52.232Z,6.22
2022-12-06T11:57:51.865Z,6.25
2022-12-06T11:58:51.884Z,6.25
2022-12-06T11:59:51.832Z,6.21
2022-12-06T12:00:52.242Z,6.18
2022-12-06T12:01:51.867Z,6.15
2022-12-06T12:02:51.830Z,6.14
2022-12-06T12:03:51.861Z,6.09
2022-12-06T12:04:51.770Z,6.08
2022-12-06T12:05:51.743Z,6.03
2022-12-06T12:06:51.922Z,5.97
2022-12-06T12:07:51.762Z,5.96
2022-12-06T12:08:51.727Z,5.89
2022-12-06T12:09:51.701Z,5.86
2022-12-06T12:10:51.710Z,5.89
2022-12-06T12:11:51.666Z,5.82
2022-12-06T12:12:52.393Z,5.79
2022-12-06T12:13:51.678Z,5.79
2022-12-06T12:14:51.643Z,5.76
2022-12-06T12:15:51.645Z,5.76
2022-12-06T12:16:51.633Z,5.75
2022-12-06T12:17:51.621Z,5.72
2022-12-06T12:18:51.612Z,5.71
2022-12-06T12:19:51.598Z,5.67
2022-12-06T12:20:51.554Z,5.64
2022-12-06T12:21:54.390Z,5.64
2022-12-06T12:22:51.585Z,5.64
2022-12-06T12:23:51.537Z,5.64
2022-12-06T12:25:19.192Z,5.64
2022-12-06T12:25:52.507Z,5.64
2022-12-06T12:26:51.492Z,5.64
2022-12-06T12:27:51.474Z,5.65
2022-12-06T12:28:51.495Z,5.64
2022-12-06T12:29:51.462Z,5.65
2022-12-06T12:30:51.477Z,5.65
2022-12-06T12:31:51.540Z,5.65
2022-12-06T12:32:51.468Z,5.67
2022-12-06T12:33:51.399Z,5.68
2022-12-06T12:34:51.413Z,5.67
2022-12-06T12:35:51.427Z,5.65
2022-12-06T12:36:51.375Z,5.64
2022-12-06T12:37:51.446Z,5.64
2022-12-06T12:38:51.312Z,5.64
2022-12-06T12:39:51.351Z,5.65
2022-12-06T12:40:51.299Z,5.64
2022-12-06T12:41:51.336Z,5.65
2022-12-06T12:42:51.273Z,5.65
2022-12-06T12:44:02.367Z,5.63
2022-12-06T12:44:52.240Z,5.60
2022-12-06T12:45:51.273Z,5.53
2022-12-06T12:46:51.248Z,5.46
2022-12-06T12:47:51.224Z,5.42
2022-12-06T12:48:51.188Z,5.38
2022-12-06T12:49:51.628Z,5.33
2022-12-06T12:50:51.176Z,5.33
2022-12-06T12:51:51.178Z,5.35
2022-12-06T12:52:51.193Z,5.31
2022-12-06T12:53:51.167Z,5.31
2022-12-06T12:54:51.114Z,5.28
2022-12-06T12:55:52.246Z,5.28
2022-12-06T12:56:51.090Z,5.28
2022-12-06T12:57:51.124Z,5.24
2022-12-06T12:58:51.089Z,5.22
2022-12-06T12:59:51.085Z,5.20
2022-12-06T13:00:51.094Z,5.20
2022-12-06T13:01:51.292Z,5.17
2022-12-06T13:02:51.089Z,5.15
2022-12-06T13:03:51.631Z,5.12
2022-12-06T13:05:05.139Z,5.10
2022-12-06T13:05:52.171Z,5.03
2022-12-06T13:06:50.965Z,5.00
2022-12-06T13:07:51.084Z,4.99
2022-12-06T13:08:50.947Z,5.00
2022-12-06T13:09:50.948Z,5.00
2022-12-06T13:10:57.031Z,5.00
2022-12-06T13:11:52.006Z,5.00
2022-12-06T13:12:50.885Z,4.97
2022-12-06T13:13:50.979Z,4.96
2022-12-06T13:14:50.870Z,4.97
2022-12-06T13:15:50.899Z,4.99
2022-12-06T13:16:50.885Z,5.03
2022-12-06T13:17:55.085Z,5.06
2022-12-06T13:18:51.851Z,5.04
2022-12-06T13:19:53.549Z,5.09
2022-12-06T13:20:50.783Z,5.13
2022-12-06T13:21:50.817Z,5.15
2022-12-06T13:22:50.754Z,5.17
2022-12-06T13:23:50.884Z,5.13
2022-12-06T13:24:50.738Z,5.10
2022-12-06T13:25:50.769Z,5.04
2022-12-06T13:26:50.695Z,5.04
2022-12-06T13:27:50.698Z,5.02
2022-12-06T13:28:50.681Z,4.97
2022-12-06T13:29:50.739Z,4.91
2022-12-06T13:30:50.710Z,4.85
2022-12-06T13:31:50.649Z,4.82
2022-12-06T13:32:50.655Z,4.82
2022-12-06T13:33:50.733Z,4.82
2022-12-06T13:34:50.603Z,4.84
2022-12-06T13:35:50.624Z,4.84
2022-12-06T13:36:50.568Z,4.86
2022-12-06T13:37:50.595Z,4.86
2022-12-06T13:38:50.553Z,4.85
2022-12-06T13:39:50.645Z,4.88
2022-12-06T13:40:50.570Z,4.88
2022-12-06T13:41:50.535Z,4.92
2022-12-06T13:42:50.501Z,4.94
2022-12-06T13:43:50.495Z,4.96
2022-12-06T13:44:50.476Z,4.94
2022-12-06T13:45:50.870Z,4.92
2022-12-06T13:46:50.444Z,4.92
2022-12-06T13:47:50.453Z,4.96
2022-12-06T13:48:50.416Z,4.97
2022-12-06T13:49:50.421Z,5.00
2022-12-06T13:50:50.403Z,4.99
2022-12-06T13:51:50.461Z,4.97
2022-12-06T13:52:50.401Z,4.92
2022-12-06T13:53:50.367Z,4.91
2022-12-06T13:54:50.331Z,4.89
2022-12-06T13:55:53.427Z,4.88
2022-12-06T13:56:51.362Z,4.88
2022-12-06T13:57:50.338Z,4.91
2022-12-06T13:58:50.349Z,4.91
2022-12-06T13:59:50.299Z,4.91
2022-12-06T14:00:50.987Z,4.91
2022-12-06T14:01:50.318Z,4.88
2022-12-06T14:02:50.271Z,4.86
2022-12-06T14:03:50.258Z,4.85
2022-12-06T14:04:50.259Z,4.89
2022-12-06T14:06:25.103Z,4.91
2022-12-06T14:07:26.852Z,4.91
2022-12-06T14:08:25.059Z,4.86
2022-12-06T14:09:26.817Z,4.80
2022-12-06T14:10:24.980Z,4.78
2022-12-06T14:11:25.228Z,4.75
2022-12-06T14:12:24.969Z,4.72
2022-12-06T14:13:24.966Z,4.69
2022-12-06T14:14:24.952Z,4.72
2022-12-06T14:15:24.951Z,4.72
2022-12-06T14:16:24.947Z,4.69
2022-12-06T14:17:53.032Z,4.72
2022-12-06T14:18:25.913Z,4.73
2022-12-06T14:19:25.036Z,4.75
2022-12-06T14:20:24.883Z,4.72
2022-12-06T14:21:24.913Z,4.73
2022-12-06T14:22:24.833Z,4.77
2022-12-06T14:23:24.844Z,4.75
2022-12-06T14:24:24.901Z,4.78
2022-12-06T14:25:24.812Z,4.80
2022-12-06T14:26:24.784Z,4.80
2022-12-06T14:27:24.801Z,4.85
2022-12-06T14:28:24.761Z,4.82
2022-12-06T14:29:24.791Z,4.85
2022-12-06T14:30:26.531Z,4.84
2022-12-06T14:31:24.810Z,4.84
2022-12-06T14:32:24.723Z,4.80
2022-12-06T14:33:24.714Z,4.78
2022-12-06T14:34:24.689Z,4.78
2022-12-06T14:35:24.688Z,4.80
2022-12-06T14:36:24.941Z,4.84
2022-12-06T14:37:24.711Z,4.86
2022-12-06T14:38:24.668Z,4.84
2022-12-06T14:39:24.635Z,4.82
2022-12-06T14:40:45.125Z,4.86
2022-12-06T14:41:26.608Z,4.85
2022-12-06T14:42:24.589Z,4.88
2022-12-06T14:43:24.568Z,4.86
2022-12-06T14:44:24.550Z,4.88
2022-12-06T14:45:24.549Z,4.85
2022-12-06T14:46:24.754Z,4.84
2022-12-06T14:47:24.827Z,4.80
2022-12-06T14:48:24.505Z,4.80
2022-12-06T14:49:24.503Z,4.77
2022-12-06T14:50:24.582Z,4.75
2022-12-06T14:51:24.560Z,4.77
2022-12-06T14:52:24.526Z,4.77
2022-12-06T14:53:24.494Z,4.78
2022-12-06T14:54:24.465Z,4.77
2022-12-06T14:55:24.431Z,4.77
2022-12-06T14:56:24.458Z,4.75
2022-12-06T14:57:24.432Z,4.72
2022-12-06T14:58:24.377Z,4.67
2022-12-06T15:00:03.111Z,4.62
2022-12-06T15:00:27.164Z,4.58
2022-12-06T15:01:24.340Z,4.58
2022-12-06T15:02:24.335Z,4.55
2022-12-06T15:03:24.424Z,4.51
2022-12-06T15:04:24.332Z,4.50
2022-12-06T15:05:24.540Z,4.50
2022-12-06T15:06:24.289Z,4.50
2022-12-06T15:07:24.310Z,4.50
2022-12-06T15:08:24.284Z,4.51
2022-12-06T15:09:24.264Z,4.54
2022-12-06T15:10:24.243Z,4.54
2022-12-06T15:11:25.269Z,4.58
2022-12-06T15:12:24.258Z,4.60
2022-12-06T15:13:24.212Z,4.62
2022-12-06T15:14:24.163Z,4.63
2022-12-06T15:15:24.187Z,4.63
2022-12-06T15:16:24.240Z,4.63
2022-12-06T15:17:24.217Z,4.63
2022-12-06T15:18:24.112Z,4.63
2022-12-06T15:19:24.146Z,4.63
2022-12-06T15:20:24.079Z,4.60
2022-12-06T15:21:24.106Z,4.60
2022-12-06T15:22:25.595Z,4.59
2022-12-06T15:23:24.131Z,4.60
2022-12-06T15:24:24.056Z,4.58
2022-12-06T15:25:24.054Z,4.58
2022-12-06T15:26:24.139Z,4.59
2022-12-06T15:27:24.033Z,4.58
2022-12-06T15:28:24.004Z,4.58
2022-12-06T15:29:24.030Z,4.55
2022-12-06T15:30:24.904Z,4.52
2022-12-06T15:31:24.066Z,4.54
2022-12-06T15:32:23.932Z,4.54
2022-12-06T15:33:24.158Z,4.52
2022-12-06T15:34:23.911Z,4.51
2022-12-06T15:35:23.912Z,4.51
2022-12-06T15:36:24.150Z,4.48
2022-12-06T15:37:38.569Z,4.45
2022-12-06T15:38:24.852Z,4.45
2022-12-06T15:39:23.880Z,4.45
2022-12-06T15:40:23.868Z,4.42
2022-12-06T15:41:23.851Z,4.40
2022-12-06T15:42:24.037Z,4.40
2022-12-06T15:43:23.842Z,4.37
2022-12-06T15:44:23.786Z,4.40
2022-12-06T15:45:23.788Z,4.40
2022-12-06T15:46:23.875Z,4.37
2022-12-06T15:47:23.804Z,4.37
2022-12-06T15:48:23.947Z,4.34
2022-12-06T15:49:23.797Z,4.36
2022-12-06T15:50:23.707Z,4.34
2022-12-06T15:51:23.747Z,4.36
2022-12-06T15:52:23.698Z,4.33
2022-12-06T15:53:23.706Z,4.32
2022-12-06T15:54:23.826Z,4.29
2022-12-06T15:55:23.656Z,4.29
2022-12-06T15:56:23.615Z,4.26
2022-12-06T15:57:23.624Z,4.27
2022-12-06T15:58:23.605Z,4.27
2022-12-06T15:59:23.634Z,4.26
2022-12-06T16:00:24.394Z,4.29
2022-12-06T16:01:23.631Z,4.29
2022-12-06T16:02:23.614Z,4.27
2022-12-06T16:03:23.584Z,4.27
2022-12-06T16:04:23.548Z,4.27
2022-12-06T16:05:23.535Z,4.29
2022-12-06T16:06:23.716Z,4.30
2022-12-06T16:07:23.520Z,4.29
2022-12-06T16:08:23.545Z,4.30
2022-12-06T16:09:23.510Z,4.32
2022-12-06T16:10:32.827Z,4.32
2022-12-06T16:11:25.360Z,4.33
2022-12-06T16:12:23.418Z,4.33
2022-12-06T16:13:23.448Z,4.32
2022-12-06T16:14:23.405Z,4.32
2022-12-06T16:15:23.410Z,4.32
2022-12-06T16:16:23.461Z,4.32
2022-12-06T16:17:23.409Z,4.29
2022-12-06T16:18:23.335Z,4.29
2022-12-06T16:19:23.387Z,4.29
2022-12-06T16:20:23.573Z,4.29
2022-12-06T16:21:23.317Z,4.27
2022-12-06T16:22:23.286Z,4.27
2022-12-06T16:23:23.304Z,4.27
2022-12-06T16:24:23.285Z,4.24
2022-12-06T16:25:23.288Z,4.29
2022-12-06T16:26:23.347Z,4.30
2022-12-06T16:27:23.252Z,4.30
2022-12-06T16:28:23.220Z,4.29
2022-12-06T16:29:23.302Z,4.26
2022-12-06T16:30:23.205Z,4.24
2022-12-06T16:31:23.313Z,4.23
2022-12-06T16:32:23.422Z,4.23
2022-12-06T16:33:23.194Z,4.23
2022-12-06T16:34:23.137Z,4.24
2022-12-06T16:35:23.151Z,4.26
2022-12-06T16:36:23.123Z,4.26
2022-12-06T16:37:23.132Z,4.29
2022-12-06T16:38:23.212Z,4.29
2022-12-06T16:39:23.113Z,4.30
2022-12-06T16:40:23.097Z,4.32
2022-12-06T16:41:23.099Z,4.30
2022-12-06T16:42:23.067Z,4.29
2022-12-06T16:43:23.036Z,4.26
2022-12-06T16:44:23.033Z,4.27
2022-12-06T16:45:23.033Z,4.26
2022-12-06T16:46:23.054Z,4.23
2022-12-06T16:47:54.756Z,4.22
2022-12-06T16:48:55.724Z,4.18
2022-12-06T16:49:54.704Z,4.16
2022-12-06T16:50:54.722Z,4.16
2022-12-06T16:51:54.707Z,4.16
2022-12-06T16:52:54.996Z,4.15
2022-12-06T16:53:54.664Z,4.16
2022-12-06T16:54:54.666Z,4.16
2022-12-06T16:55:54.651Z,4.15
2022-12-06T16:56:54.642Z,4.15
2022-12-06T16:57:54.644Z,4.14
2022-12-06T16:58:54.762Z,4.14
2022-12-06T16:59:54.613Z,4.14
2022-12-06T17:00:54.659Z,4.12
2022-12-06T17:01:54.582Z,4.14
2022-12-06T17:02:54.572Z,4.14
2022-12-06T17:03:54.560Z,4.15
2022-12-06T17:04:54.660Z,4.15
2022-12-06T17:05:54.615Z,4.18
2022-12-06T17:06:54.487Z,4.20
2022-12-06T17:07:54.600Z,4.22
2022-12-06T17:08:54.522Z,4.22
2022-12-06T17:09:54.497Z,4.23
2022-12-06T17:10:54.490Z,4.24
2022-12-06T17:11:55.978Z,4.26
2022-12-06T17:12:54.414Z,4.24
2022-12-06T17:13:54.437Z,4.26
2022-12-06T17:14:54.463Z,4.27
2022-12-06T17:15:54.453Z,4.27
2022-12-06T17:16:54.355Z,4.29
2022-12-06T17:17:55.187Z,4.30
2022-12-06T17:18:54.345Z,4.32
2022-12-06T17:19:54.352Z,4.33
2022-12-06T17:20:54.306Z,4.34
2022-12-06T17:21:54.334Z,4.34
2022-12-06T17:22:54.286Z,4.36
2022-12-06T17:23:54.431Z,4.37
2022-12-06T17:24:54.264Z,4.37
2022-12-06T17:25:54.273Z,4.40
2022-12-06T17:26:54.286Z,4.42
2022-12-06T17:27:54.286Z,4.42
2022-12-06T17:28:54.201Z,4.42
2022-12-06T17:29:54.337Z,4.44
2022-12-06T17:30:54.172Z,4.45
2022-12-06T17:31:54.333Z,4.48
2022-12-06T17:32:54.194Z,4.48
2022-12-06T17:33:54.172Z,4.50
2022-12-06T17:34:54.184Z,4.48
2022-12-06T17:35:54.213Z,4.47
2022-12-06T17:36:54.122Z,4.48
2022-12-06T17:37:54.105Z,4.47
2022-12-06T17:38:54.081Z,4.45
2022-12-06T17:39:54.091Z,4.48
2022-12-06T17:40:54.055Z,4.48
2022-12-06T17:41:54.330Z,4.50
2022-12-06T17:42:54.028Z,4.50
2022-12-06T17:43:54.051Z,4.47
2022-12-06T17:44:54.053Z,4.48
2022-12-06T17:45:54.043Z,4.48
2022-12-06T17:46:54.019Z,4.48
2022-12-06T17:47:54.047Z,4.48
2022-12-06T17:48:53.972Z,4.47
2022-12-06T17:49:53.951Z,4.47
2022-12-06T17:50:53.916Z,4.48
2022-12-06T17:51:53.928Z,4.50
2022-12-06T17:52:53.899Z,4.50
2022-12-06T17:53:54.025Z,4.48
2022-12-06T17:54:53.870Z,4.48
2022-12-06T17:55:53.878Z,4.47
2022-12-06T17:56:53.854Z,4.48
2022-12-06T17:57:54.047Z,4.50
2022-12-06T17:58:53.822Z,4.50
2022-12-06T17:59:53.822Z,4.48
2022-12-06T18:00:53.835Z,4.47
2022-12-06T18:02:54.975Z,4.42
2022-12-06T18:03:53.772Z,4.44
2022-12-06T18:04:53.768Z,4.42
2022-12-06T18:05:53.753Z,4.41
2022-12-06T18:06:53.714Z,4.41
2022-12-06T18:07:53.772Z,4.40
2022-12-06T18:08:53.804Z,4.40
2022-12-06T18:09:53.826Z,4.40
2022-12-06T18:10:53.671Z,4.41
2022-12-06T18:11:53.662Z,4.41
2022-12-06T18:12:53.654Z,4.41
2022-12-06T18:13:53.646Z,4.42
2022-12-06T18:14:53.839Z,4.42
2022-12-06T18:15:53.628Z,4.41
2022-12-06T18:16:53.665Z,4.42
2022-12-06T18:17:53.607Z,4.42
2022-12-06T18:18:53.668Z,4.41
2022-12-06T18:19:53.584Z,4.42
2022-12-06T18:20:53.630Z,4.42